createdAt,value
2019-03-25T00:02:42.091Z,20.33
2019-03-25T00:05:47.676Z,20.60
2019-03-25T00:09:04.881Z,20.57
2019-03-25T00:12:00.772Z,21.67
2019-03-25T00:15:06.718Z,20.57
2019-03-25T00:18:12.463Z,21.77
2019-03-25T00:21:18.133Z,22.23
2019-03-25T00:24:23.783Z,21.57
2019-03-25T00:27:29.455Z,21.63
2019-03-25T00:30:35.130Z,21.20
2019-03-25T00:33:40.650Z,20.80
2019-03-25T00:36:46.239Z,23.20
2019-03-25T00:39:52.750Z,21.47
2019-03-25T00:42:58.671Z,23.63
2019-03-25T00:46:04.261Z,21.40
2019-03-25T00:49:09.923Z,23.70
2019-03-25T00:52:15.523Z,21.70
2019-03-25T00:55:24.128Z,23.30
2019-03-25T00:58:29.798Z,20.93
2019-03-25T01:01:35.486Z,22.87
2019-03-25T01:04:41.163Z,21.53
2019-03-25T01:07:46.827Z,23.87
2019-03-25T01:10:52.483Z,22.70
2019-03-25T01:13:57.987Z,21.47
2019-03-25T01:17:03.575Z,20.83
2019-03-25T01:20:09.492Z,24.30
2019-03-25T01:23:15.128Z,22.57
2019-03-25T01:26:20.763Z,22.57
2019-03-25T01:29:26.271Z,23.90
2019-03-25T01:32:31.776Z,22.27
2019-03-25T01:35:37.426Z,22.97
2019-03-25T01:38:43.101Z,23.00
2019-03-25T01:41:48.747Z,22.93
2019-03-25T01:44:54.349Z,24.43
2019-03-25T01:48:00.023Z,24.50
2019-03-25T01:51:05.752Z,24.87
2019-03-25T01:54:11.341Z,25.07
2019-03-25T01:57:16.912Z,27.40
2019-03-25T02:00:22.645Z,26.30
2019-03-25T02:03:28.271Z,26.10
2019-03-25T02:06:33.852Z,26.23
2019-03-25T02:09:39.454Z,25.23
2019-03-25T02:12:45.130Z,26.60
2019-03-25T02:15:50.809Z,26.13
2019-03-25T02:18:56.474Z,27.10
2019-03-25T02:22:02.132Z,26.77
2019-03-25T02:25:07.941Z,26.30
2019-03-25T02:28:13.623Z,27.90
2019-03-25T02:31:19.302Z,24.03
2019-03-25T02:34:24.991Z,25.83
2019-03-25T02:37:30.720Z,25.50
2019-03-25T02:40:36.316Z,25.53
2019-03-25T02:43:41.959Z,25.10
2019-03-25T02:46:47.556Z,23.17
2019-03-25T02:49:53.173Z,25.30
2019-03-25T02:52:58.761Z,24.70
2019-03-25T02:56:04.713Z,24.50
2019-03-25T02:59:10.388Z,24.50
2019-03-25T03:02:16.048Z,22.30
2019-03-25T03:05:21.573Z,25.17
2019-03-25T03:08:27.251Z,23.67
2019-03-25T03:11:32.772Z,22.77
2019-03-25T03:14:38.296Z,23.13
2019-03-25T03:17:43.958Z,24.70
2019-03-25T03:20:49.559Z,23.60
2019-03-25T03:23:55.293Z,21.80
2019-03-25T03:27:00.882Z,21.17
2019-03-25T03:30:06.719Z,19.90
2019-03-25T03:33:12.455Z,22.50
2019-03-25T03:36:18.124Z,22.23
2019-03-25T03:39:23.737Z,19.87
2019-03-25T03:42:29.414Z,19.57
2019-03-25T03:45:35.117Z,19.47
2019-03-25T03:48:40.643Z,19.63
2019-03-25T03:51:46.390Z,18.93
2019-03-25T03:54:52.232Z,20.17
2019-03-25T03:57:58.232Z,18.63
2019-03-25T04:01:05.014Z,18.20
2019-03-25T04:04:10.705Z,17.50
2019-03-25T04:07:16.376Z,17.87
2019-03-25T04:10:22.136Z,16.60
2019-03-25T04:13:27.769Z,15.50
2019-03-25T04:16:33.384Z,14.83
2019-03-25T04:19:38.895Z,14.00
2019-03-25T04:22:44.494Z,14.10
2019-03-25T04:25:50.184Z,12.67
2019-03-25T04:28:55.695Z,11.70
2019-03-25T04:32:01.365Z,11.70
2019-03-25T04:35:07.034Z,12.17
2019-03-25T04:38:12.655Z,11.00
2019-03-25T04:41:18.408Z,10.90
2019-03-25T04:44:23.996Z,10.90
2019-03-25T04:47:29.592Z,10.33
2019-03-25T04:50:35.211Z,9.93
2019-03-25T04:53:40.816Z,9.50
2019-03-25T04:56:46.508Z,9.40
2019-03-25T04:59:52.084Z,9.20
2019-03-25T05:02:57.846Z,9.50
2019-03-25T05:06:03.819Z,8.50
2019-03-25T05:09:09.671Z,8.13
2019-03-25T05:12:15.603Z,8.90
2019-03-25T05:15:21.633Z,8.80
2019-03-25T05:18:27.547Z,9.00
2019-03-25T05:21:33.343Z,8.53
2019-03-25T05:24:39.108Z,9.10
2019-03-25T05:27:44.905Z,8.20
2019-03-25T05:30:50.586Z,8.70
2019-03-25T05:33:56.483Z,8.30
2019-03-25T05:37:02.093Z,8.00
2019-03-25T05:40:08.055Z,8.10
2019-03-25T05:43:13.892Z,8.20
2019-03-25T05:46:19.608Z,7.50
2019-03-25T05:49:25.659Z,8.00
2019-03-25T05:52:31.623Z,9.73
2019-03-25T05:55:37.467Z,9.10
2019-03-25T05:58:43.263Z,7.50
2019-03-25T06:01:49.000Z,8.77
2019-03-25T06:04:54.515Z,7.37
2019-03-25T06:08:00.107Z,7.60
2019-03-25T06:11:05.758Z,7.67
2019-03-25T06:14:11.427Z,6.57
2019-03-25T06:17:16.956Z,7.13
2019-03-25T06:20:22.633Z,7.60
2019-03-25T06:23:28.348Z,8.40
2019-03-25T06:26:33.945Z,8.20
2019-03-25T06:29:39.620Z,8.93
2019-03-25T06:32:45.336Z,7.37
2019-03-25T06:35:50.862Z,7.93
2019-03-25T06:38:56.475Z,9.13
2019-03-25T06:42:02.160Z,7.30
2019-03-25T06:45:08.804Z,7.00
2019-03-25T06:48:14.403Z,8.90
2019-03-25T06:51:20.381Z,7.47
2019-03-25T06:54:26.049Z,7.10
2019-03-25T06:57:31.627Z,7.60
2019-03-25T07:00:37.299Z,7.83
2019-03-25T07:03:42.917Z,6.40
2019-03-25T07:06:48.579Z,7.30
2019-03-25T07:09:54.253Z,7.70
2019-03-25T07:13:00.252Z,7.83
2019-03-25T07:16:05.931Z,8.07
2019-03-25T07:19:11.595Z,9.30
2019-03-25T07:22:17.259Z,8.47
2019-03-25T07:25:25.299Z,8.57
2019-03-25T07:28:31.027Z,8.60
2019-03-25T07:31:36.700Z,8.60
2019-03-25T07:34:42.199Z,8.70
2019-03-25T07:37:47.868Z,8.67
2019-03-25T07:40:53.537Z,9.00
2019-03-25T07:43:59.180Z,10.20
2019-03-25T07:47:04.882Z,10.37
2019-03-25T07:50:11.092Z,10.53
2019-03-25T07:53:16.627Z,10.00
2019-03-25T07:56:22.362Z,9.90
2019-03-25T07:59:28.050Z,10.07
2019-03-25T08:02:33.769Z,9.80
2019-03-25T08:05:39.344Z,11.33
2019-03-25T08:08:45.098Z,9.93
2019-03-25T08:11:50.744Z,9.40
2019-03-25T08:14:56.495Z,14.10
2019-03-25T08:18:02.327Z,10.10
2019-03-25T08:21:08.072Z,10.30
2019-03-25T08:24:13.676Z,9.53
2019-03-25T08:27:19.483Z,9.70
2019-03-25T08:30:25.301Z,11.17
2019-03-25T08:33:30.982Z,9.90
2019-03-25T08:36:36.585Z,11.20
2019-03-25T08:39:42.179Z,9.93
2019-03-25T08:42:47.829Z,11.97
2019-03-25T08:45:53.500Z,10.17
2019-03-25T08:48:59.074Z,10.93
2019-03-25T08:52:04.757Z,10.90
2019-03-25T08:55:10.457Z,12.10
2019-03-25T08:58:16.159Z,10.20
2019-03-25T09:01:21.821Z,10.80
2019-03-25T09:04:27.512Z,10.43
2019-03-25T09:07:33.104Z,9.23
2019-03-25T09:10:38.790Z,10.07
2019-03-25T09:13:44.528Z,9.80
2019-03-25T09:16:50.124Z,11.00
2019-03-25T09:19:55.808Z,10.23
2019-03-25T09:23:01.467Z,10.87
2019-03-25T09:26:07.213Z,10.43
2019-03-25T09:29:12.880Z,10.50
2019-03-25T09:32:18.632Z,9.60
2019-03-25T09:35:24.384Z,8.40
2019-03-25T09:38:30.046Z,9.43
2019-03-25T09:41:35.788Z,9.20
2019-03-25T09:44:41.379Z,8.50
2019-03-25T09:47:47.044Z,9.93
2019-03-25T09:50:52.656Z,10.67
2019-03-25T09:53:58.324Z,10.17
2019-03-25T09:57:03.994Z,9.07
2019-03-25T10:00:11.527Z,12.13
2019-03-25T10:03:17.131Z,10.27
2019-03-25T10:06:22.812Z,12.23
2019-03-25T10:09:28.479Z,9.23
2019-03-25T10:12:34.100Z,9.50
2019-03-25T10:15:39.848Z,10.30
2019-03-25T10:18:45.508Z,9.63
2019-03-25T10:21:51.113Z,11.13
2019-03-25T10:24:56.787Z,11.50
2019-03-25T10:28:02.450Z,11.53
2019-03-25T10:31:08.142Z,11.73
2019-03-25T10:34:13.721Z,12.63
2019-03-25T10:37:19.320Z,12.57
2019-03-25T10:40:24.979Z,11.90
2019-03-25T10:43:30.579Z,14.10
2019-03-25T10:46:36.244Z,12.00
2019-03-25T10:49:41.859Z,11.23
2019-03-25T10:52:47.703Z,11.90
2019-03-25T10:55:53.379Z,12.07
2019-03-25T10:58:59.031Z,10.67
2019-03-25T11:02:05.107Z,10.80
2019-03-25T11:05:10.952Z,10.10
2019-03-25T11:08:16.628Z,9.10
2019-03-25T11:11:22.284Z,8.30
2019-03-25T11:14:27.953Z,10.50
2019-03-25T11:17:33.612Z,8.50
2019-03-25T11:20:39.275Z,9.23
2019-03-25T11:23:44.911Z,9.87
2019-03-25T11:26:50.563Z,9.17
2019-03-25T11:29:56.236Z,8.97
2019-03-25T11:33:01.833Z,9.20
2019-03-25T11:36:07.583Z,10.00
2019-03-25T11:39:13.274Z,10.33
2019-03-25T11:42:18.944Z,10.03
2019-03-25T11:45:24.631Z,9.30
2019-03-25T11:48:30.358Z,9.37
2019-03-25T11:51:35.993Z,8.10
2019-03-25T11:54:41.592Z,8.40
2019-03-25T11:57:47.200Z,8.47
2019-03-25T12:00:52.800Z,7.87
2019-03-25T12:03:58.388Z,6.17
2019-03-25T12:07:04.046Z,6.83
2019-03-25T12:10:09.727Z,5.90
2019-03-25T12:13:15.385Z,2.60
2019-03-25T12:16:21.050Z,2.57
2019-03-25T12:19:26.714Z,2.63
2019-03-25T12:22:32.284Z,3.13
2019-03-25T12:25:37.959Z,2.90
2019-03-25T12:28:43.621Z,2.80
2019-03-25T12:31:49.222Z,1.90
2019-03-25T12:34:54.871Z,1.20
2019-03-25T12:38:00.402Z,1.13
2019-03-25T12:41:06.431Z,1.20
2019-03-25T12:44:12.104Z,1.00
2019-03-25T12:47:18.008Z,1.70
2019-03-25T12:50:23.901Z,1.97
2019-03-25T12:53:29.788Z,2.20
2019-03-25T12:56:35.668Z,3.30
2019-03-25T12:59:41.828Z,3.07
2019-03-25T13:02:47.886Z,3.30
2019-03-25T13:05:53.773Z,3.70
2019-03-25T13:09:00.227Z,4.57
2019-03-25T13:12:06.323Z,5.37
2019-03-25T13:15:12.208Z,5.67
2019-03-25T13:18:18.119Z,5.37
2019-03-25T13:21:23.995Z,4.97
2019-03-25T13:24:29.886Z,5.97
2019-03-25T13:27:35.873Z,5.73
2019-03-25T13:30:41.768Z,4.30
2019-03-25T13:33:47.908Z,4.20
2019-03-25T13:36:53.843Z,3.23
2019-03-25T13:39:59.747Z,3.40
2019-03-25T13:43:05.699Z,3.47
2019-03-25T13:46:11.616Z,3.93
2019-03-25T13:49:17.547Z,4.73
2019-03-25T13:52:23.411Z,4.50
2019-03-25T13:55:29.297Z,3.47
2019-03-25T13:58:35.158Z,3.73
2019-03-25T14:01:41.923Z,3.43
2019-03-25T14:04:47.793Z,3.53
2019-03-25T14:07:53.755Z,3.70
2019-03-25T14:11:02.893Z,5.40
2019-03-25T14:14:08.780Z,4.17
2019-03-25T14:17:14.673Z,2.40
2019-03-25T14:20:20.555Z,2.57
2019-03-25T14:23:26.432Z,2.60
2019-03-25T14:26:32.306Z,2.23
2019-03-25T14:29:38.244Z,1.73
2019-03-25T14:32:44.167Z,1.17
2019-03-25T14:35:50.044Z,1.80
2019-03-25T14:38:56.019Z,1.20
2019-03-25T14:42:04.181Z,1.10
2019-03-25T14:45:10.463Z,1.30
2019-03-25T14:48:16.368Z,2.30
2019-03-25T14:51:22.236Z,2.17
2019-03-25T14:54:28.139Z,1.77
2019-03-25T14:57:34.079Z,2.10
2019-03-25T15:00:39.983Z,2.03
2019-03-25T15:03:45.859Z,1.50
2019-03-25T15:06:51.745Z,3.63
2019-03-25T15:09:57.630Z,2.90
2019-03-25T15:13:03.548Z,2.80
2019-03-25T15:16:09.471Z,2.87
2019-03-25T15:19:15.363Z,3.43
2019-03-25T15:22:21.260Z,3.40
2019-03-25T15:25:27.168Z,2.73
2019-03-25T15:28:33.074Z,3.00
2019-03-25T15:31:38.945Z,2.50
2019-03-25T15:34:44.835Z,2.10
2019-03-25T15:37:50.735Z,2.07
2019-03-25T15:40:56.637Z,1.90
2019-03-25T15:44:02.608Z,1.77
2019-03-25T15:47:08.494Z,1.97
2019-03-25T15:50:14.876Z,2.03
2019-03-25T15:53:20.749Z,1.40
2019-03-25T15:56:26.643Z,1.50
2019-03-25T15:59:32.905Z,2.23
2019-03-25T16:02:38.803Z,2.00
2019-03-25T16:05:44.710Z,2.30
2019-03-25T16:08:50.587Z,2.53
2019-03-25T16:11:56.460Z,2.20
2019-03-25T16:15:02.408Z,2.10
2019-03-25T16:18:08.917Z,2.37
2019-03-25T16:21:14.914Z,1.53
2019-03-25T16:24:20.809Z,1.40
2019-03-25T16:27:26.699Z,1.30
2019-03-25T16:30:32.567Z,1.57
2019-03-25T16:33:40.415Z,1.90
2019-03-25T16:36:46.086Z,1.50
2019-03-25T16:39:51.997Z,2.47
2019-03-25T16:42:57.939Z,1.67
2019-03-25T16:46:11.201Z,1.97
2019-03-25T16:49:17.068Z,1.83
2019-03-25T16:52:22.934Z,2.30
2019-03-25T16:55:28.804Z,2.30
2019-03-25T16:58:34.701Z,2.13
2019-03-25T17:01:41.667Z,1.93
2019-03-25T17:04:47.823Z,2.10
2019-03-25T17:07:53.768Z,1.40
2019-03-25T17:10:59.793Z,2.17
2019-03-25T17:14:05.676Z,2.00
2019-03-25T17:17:11.564Z,1.80
2019-03-25T17:20:17.447Z,1.97
2019-03-25T17:23:23.413Z,2.23
2019-03-25T17:26:29.283Z,2.33
2019-03-25T17:29:35.232Z,2.40
2019-03-25T17:32:41.115Z,2.60
2019-03-25T17:35:47.027Z,2.27
2019-03-25T17:38:53.008Z,2.23
2019-03-25T17:41:58.895Z,2.53
2019-03-25T17:45:04.848Z,2.40
2019-03-25T17:48:10.780Z,3.33
2019-03-25T17:51:16.687Z,3.40
2019-03-25T17:54:22.601Z,4.60
2019-03-25T17:57:28.476Z,4.00
2019-03-25T18:01:12.016Z,4.30
2019-03-25T18:04:17.941Z,4.00
2019-03-25T18:07:23.803Z,3.83
2019-03-25T18:10:29.724Z,4.10
2019-03-25T18:13:35.627Z,3.47
2019-03-25T18:16:41.531Z,3.33
2019-03-25T18:19:47.419Z,2.40
2019-03-25T18:22:53.307Z,2.27
2019-03-25T18:25:59.588Z,2.47
2019-03-25T18:29:05.584Z,2.20
2019-03-25T18:32:11.564Z,2.30
2019-03-25T18:35:23.999Z,2.40
2019-03-25T18:38:29.929Z,2.80
2019-03-25T18:41:35.951Z,2.50
2019-03-25T18:44:41.891Z,2.60
2019-03-25T18:47:47.935Z,3.37
2019-03-25T18:50:54.042Z,3.10
2019-03-25T18:53:59.994Z,3.67
2019-03-25T18:57:05.981Z,4.47
2019-03-25T19:00:16.083Z,4.90
2019-03-25T19:03:22.384Z,4.70
2019-03-25T19:06:28.298Z,4.20
2019-03-25T19:09:34.329Z,5.20
2019-03-25T19:12:40.275Z,4.93
2019-03-25T19:15:46.186Z,5.10
2019-03-25T19:18:52.161Z,6.00
2019-03-25T19:21:58.060Z,4.63
2019-03-25T19:25:04.147Z,4.43
2019-03-25T19:28:10.138Z,3.70
2019-03-25T19:31:16.099Z,3.40
2019-03-25T19:34:22.003Z,3.47
2019-03-25T19:37:27.931Z,3.60
2019-03-25T19:40:33.929Z,3.67
2019-03-25T19:43:39.884Z,3.30
2019-03-25T19:46:45.845Z,3.50
2019-03-25T19:49:51.883Z,2.67
2019-03-25T19:52:57.889Z,3.40
2019-03-25T19:56:03.797Z,3.60
2019-03-25T19:59:09.811Z,3.27
2019-03-25T20:02:19.325Z,3.30
2019-03-25T20:05:23.412Z,2.73
2019-03-25T20:08:29.823Z,4.50
2019-03-25T20:11:35.775Z,3.40
2019-03-25T20:14:41.732Z,2.53
2019-03-25T20:17:47.695Z,3.30
2019-03-25T20:20:53.775Z,3.50
2019-03-25T20:23:59.747Z,4.17
2019-03-25T20:27:06.073Z,3.33
2019-03-25T20:30:12.386Z,3.50
2019-03-25T20:33:18.299Z,3.37
2019-03-25T20:36:24.240Z,3.83
2019-03-25T20:39:30.192Z,3.23
2019-03-25T20:42:36.206Z,3.03
2019-03-25T20:45:42.159Z,3.37
2019-03-25T20:48:48.101Z,2.97
2019-03-25T20:51:53.989Z,4.40
2019-03-25T20:54:59.884Z,4.03
2019-03-25T20:58:05.807Z,4.40
2019-03-25T21:01:23.975Z,4.50
2019-03-25T21:04:29.991Z,3.60
2019-03-25T21:07:35.997Z,3.13
2019-03-25T21:10:41.937Z,3.30
2019-03-25T21:13:55.440Z,3.50
2019-03-25T21:17:01.405Z,3.00
2019-03-25T21:20:09.324Z,1.80
2019-03-25T21:23:15.372Z,1.90
2019-03-25T21:26:21.789Z,1.87
2019-03-25T21:29:27.743Z,1.43
2019-03-25T21:32:33.803Z,2.17
2019-03-25T21:35:39.895Z,1.43
2019-03-25T21:38:45.856Z,7.80
2019-03-25T21:41:51.844Z,7.63
2019-03-25T21:44:57.787Z,16.50
2019-03-25T21:48:03.891Z,3.37
2019-03-25T21:51:09.817Z,2.80
2019-03-25T21:54:15.708Z,2.47
2019-03-25T21:57:21.681Z,1.33
2019-03-25T22:00:27.607Z,1.90
2019-03-25T22:03:33.571Z,1.40
2019-03-25T22:06:39.475Z,2.40
2019-03-25T22:09:45.471Z,1.77
2019-03-25T22:12:51.366Z,1.77
2019-03-25T22:15:57.252Z,1.60
2019-03-25T22:19:03.171Z,2.53
2019-03-25T22:22:09.073Z,2.00
2019-03-25T22:25:15.171Z,1.60
2019-03-25T22:28:21.173Z,2.30
2019-03-25T22:31:27.081Z,2.40
2019-03-25T22:34:33.072Z,2.10
2019-03-25T22:37:38.973Z,2.40
2019-03-25T22:40:44.882Z,2.60
2019-03-25T22:43:50.778Z,2.47
2019-03-25T22:46:56.755Z,2.20
2019-03-25T22:50:02.656Z,2.57
2019-03-25T22:53:08.601Z,2.97
2019-03-25T22:56:14.650Z,2.77
2019-03-25T22:59:20.616Z,3.10
2019-03-25T23:02:27.243Z,2.90
2019-03-25T23:05:33.166Z,2.70
2019-03-25T23:08:39.063Z,3.00
2019-03-25T23:11:44.971Z,2.73
2019-03-25T23:14:50.880Z,2.80
2019-03-25T23:17:56.770Z,2.93
2019-03-25T23:21:02.663Z,2.73
2019-03-25T23:24:08.555Z,2.97
2019-03-25T23:27:14.456Z,3.27
2019-03-25T23:30:20.365Z,2.97
2019-03-25T23:33:26.245Z,3.00
2019-03-25T23:36:32.150Z,2.63
2019-03-25T23:39:38.068Z,2.70
2019-03-25T23:42:43.958Z,3.00
2019-03-25T23:45:49.877Z,2.77
2019-03-25T23:48:55.748Z,3.10
2019-03-25T23:52:02.100Z,2.33
2019-03-25T23:55:08.123Z,2.83
2019-03-25T23:58:14.088Z,2.40
